sensor_id;sensor_type;location;lat;lon;timestamp;temperature;humidity
66827;DHT22;53727;45.242;19.796;2022-10-31T11:13:21;512.00;2380.80
66827;DHT22;53727;45.242;19.796;2022-10-31T11:18:25;538.10;2406.40
66827;DHT22;53727;45.242;19.796;2022-10-31T11:20:55;538.10;2406.40
66827;DHT22;53727;45.242;19.796;2022-10-31T11:23:23;538.30;2406.40
66827;DHT22;53727;45.242;19.796;2022-10-31T11:26:01;512.90;2380.80
66827;DHT22;53727;45.242;19.796;2022-10-31T11:28:28;537.70;2406.40
66827;DHT22;53727;45.242;19.796;2022-10-31T11:33:44;537.90;2406.40
66827;DHT22;53727;45.242;19.796;2022-10-31T11:36:25;538.20;2406.40
66827;DHT22;53727;45.242;19.796;2022-10-31T11:38:53;563.20;2432.00
66827;DHT22;53727;45.242;19.796;2022-10-31T11:41:39;563.30;2432.00
66827;DHT22;53727;45.242;19.796;2022-10-31T11:44:14;563.50;2432.00
66827;DHT22;53727;45.242;19.796;2022-10-31T11:49:38;563.50;2432.00
66827;DHT22;53727;45.242;19.796;2022-10-31T11:52:12;563.20;2432.00
66827;DHT22;53727;45.242;19.796;2022-10-31T11:54:45;538.20;2406.40
66827;DHT22;53727;45.242;19.796;2022-10-31T11:57:24;538.30;2406.40
66827;DHT22;53727;45.242;19.796;2022-10-31T11:59:53;538.20;2406.40
66827;DHT22;53727;45.242;19.796;2022-10-31T12:02:20;538.20;2406.40
66827;DHT22;53727;45.242;19.796;2022-10-31T12:05:27;538.20;2406.40
66827;DHT22;53727;45.242;19.796;2022-10-31T12:10:30;537.80;2406.40
66827;DHT22;53727;45.242;19.796;2022-10-31T12:13:11;537.60;2406.40
66827;DHT22;53727;45.242;19.796;2022-10-31T12:15:50;512.90;2380.80
66827;DHT22;53727;45.242;19.796;2022-10-31T12:27:24;537.60;2406.40
66827;DHT22;53727;45.242;19.796;2022-10-31T12:35:27;512.90;2380.80
66827;DHT22;53727;45.242;19.796;2022-10-31T12:38:07;512.90;2380.80
66827;DHT22;53727;45.242;19.796;2022-10-31T12:40:44;537.70;2406.40
66827;DHT22;53727;45.242;19.796;2022-10-31T12:43:34;537.80;2406.40
66827;DHT22;53727;45.242;19.796;2022-10-31T12:46:02;537.80;2406.40
66827;DHT22;53727;45.242;19.796;2022-10-31T12:59:48;563.60;2432.00
66827;DHT22;53727;45.242;19.796;2022-10-31T13:02:32;563.50;2432.00
66827;DHT22;53727;45.242;19.796;2022-10-31T13:05:16;563.30;2432.00
66827;DHT22;53727;45.242;19.796;2022-10-31T13:08:08;563.20;2432.00
66827;DHT22;53727;45.242;19.796;2022-10-31T13:10:45;563.50;2432.00
66827;DHT22;53727;45.242;19.796;2022-10-31T13:13:23;563.80;2432.00
66827;DHT22;53727;45.242;19.796;2022-10-31T13:15:57;564.00;2432.00
66827;DHT22;53727;45.242;19.796;2022-10-31T13:18:40;563.90;2432.00
66827;DHT22;53727;45.242;19.796;2022-10-31T13:21:15;563.60;2432.00
66827;DHT22;53727;45.242;19.796;2022-10-31T13:23:44;563.30;2432.00
66827;DHT22;53727;45.242;19.796;2022-10-31T13:26:36;563.40;2432.00
66827;DHT22;53727;45.242;19.796;2022-10-31T13:31:41;538.30;2406.40
66827;DHT22;53727;45.242;19.796;2022-10-31T13:36:58;538.20;2406.40
66827;DHT22;53727;45.242;19.796;2022-10-31T13:39:54;538.40;2406.40
66827;DHT22;53727;45.242;19.796;2022-10-31T13:42:40;537.80;2406.40
66827;DHT22;53727;45.242;19.796;2022-10-31T13:47:38;538.20;2406.40
66827;DHT22;53727;45.242;19.796;2022-10-31T13:52:44;537.90;2406.40
66827;DHT22;53727;45.242;19.796;2022-10-31T13:55:39;538.40;2406.40
66827;DHT22;53727;45.242;19.796;2022-10-31T13:58:26;538.40;2406.40
66827;DHT22;53727;45.242;19.796;2022-10-31T14:01:21;538.20;2406.40
66827;DHT22;53727;45.242;19.796;2022-10-31T14:11:28;665.70;2329.60
66827;DHT22;53727;45.242;19.796;2022-10-31T14:13:56;665.80;2252.80
66827;DHT22;53727;45.242;19.796;2022-10-31T14:16:31;640.20;2278.40
66827;DHT22;53727;45.242;19.796;2022-10-31T14:19:06;640.60;2252.80
66827;DHT22;53727;45.242;19.796;2022-10-31T14:21:44;615.10;2355.20
66827;DHT22;53727;45.242;19.796;2022-10-31T14:24:32;615.20;2329.60
66827;DHT22;53727;45.242;19.796;2022-10-31T14:27:35;640.00;2304.00
66827;DHT22;53727;45.242;19.796;2022-10-31T14:29:48;640.70;2227.20
66827;DHT22;53727;45.242;19.796;2022-10-31T14:34:42;640.70;2227.20
66827;DHT22;53727;45.242;19.796;2022-10-31T14:37:16;640.80;2227.20
66827;DHT22;53727;45.242;19.796;2022-10-31T14:52:56;588.80;2432.00
66827;DHT22;53727;45.242;19.796;2022-10-31T14:55:24;563.50;2432.00
66827;DHT22;53727;45.242;19.796;2022-10-31T15:05:22;487.30;2380.80
66827;DHT22;53727;45.242;19.796;2022-10-31T15:07:50;487.20;2380.80
66827;DHT22;53727;45.242;19.796;2022-10-31T15:10:23;486.90;2380.80
66827;DHT22;53727;45.242;19.796;2022-10-31T15:15:22;486.60;2380.80
66827;DHT22;53727;45.242;19.796;2022-10-31T15:18:03;461.60;2380.80
66827;DHT22;53727;45.242;19.796;2022-10-31T15:20:35;461.40;2380.80
66827;DHT22;53727;45.242;19.796;2022-10-31T15:37:51;436.00;2355.20
66827;DHT22;53727;45.242;19.796;2022-10-31T15:40:19;435.70;2355.20
66827;DHT22;53727;45.242;19.796;2022-10-31T15:43:06;435.70;2355.20
66827;DHT22;53727;45.242;19.796;2022-10-31T15:48:03;435.50;2355.20
66827;DHT22;53727;45.242;19.796;2022-10-31T15:58:13;435.40;2355.20
66827;DHT22;53727;45.242;19.796;2022-10-31T16:00:40;410.40;2355.20
66827;DHT22;53727;45.242;19.796;2022-10-31T16:13:37;410.10;2355.20
66827;DHT22;53727;45.242;19.796;2022-10-31T16:16:16;410.00;2355.20
66827;DHT22;53727;45.242;19.796;2022-10-31T16:18:43;409.90;2355.20
